Aviation Digital Data Service (ADDS)

Output produced by METARs form (0235 UTC 03 August 2015)
found at http://www.aviationweather.gov/adds/metars/
 
KALB 022335Z 0300/0324 19008KT P6SM FEW080 
     FM031400 19010G20KT P6SM SCT050 SCT250 
     FM031900 19012G22KT P6SM VCSH BKN050